sensor_id;sensor_type;location;lat;lon;timestamp;P1;durP1;ratioP1;P2;durP2;ratioP2
12980;SDS011;6555;50.468;8.480;2023-03-03T00:05:19;4.40;;;2.47;;
12980;SDS011;6555;50.468;8.480;2023-03-03T00:10:35;2.93;;;2.20;;
12980;SDS011;6555;50.468;8.480;2023-03-03T00:16:11;4.40;;;2.80;;
12980;SDS011;6555;50.468;8.480;2023-03-03T00:21:31;4.13;;;2.60;;
12980;SDS011;6555;50.468;8.480;2023-03-03T00:27:06;4.23;;;3.00;;
12980;SDS011;6555;50.468;8.480;2023-03-03T00:32:35;3.67;;;2.60;;
12980;SDS011;6555;50.468;8.480;2023-03-03T00:38:13;3.03;;;2.50;;
12980;SDS011;6555;50.468;8.480;2023-03-03T00:43:33;3.57;;;2.70;;
12980;SDS011;6555;50.468;8.480;2023-03-03T00:49:07;3.37;;;2.87;;
12980;SDS011;6555;50.468;8.480;2023-03-03T00:54:51;3.03;;;2.63;;
12980;SDS011;6555;50.468;8.480;2023-03-03T01:00:08;3.53;;;2.60;;
12980;SDS011;6555;50.468;8.480;2023-03-03T01:05:40;3.10;;;2.77;;
12980;SDS011;6555;50.468;8.480;2023-03-03T01:10:58;3.97;;;3.00;;
12980;SDS011;6555;50.468;8.480;2023-03-03T01:16:32;4.27;;;3.10;;
12980;SDS011;6555;50.468;8.480;2023-03-03T01:21:52;3.83;;;2.90;;
12980;SDS011;6555;50.468;8.480;2023-03-03T01:27:23;4.80;;;2.80;;
12980;SDS011;6555;50.468;8.480;2023-03-03T01:32:41;3.00;;;2.50;;
12980;SDS011;6555;50.468;8.480;2023-03-03T01:38:12;3.00;;;2.70;;
12980;SDS011;6555;50.468;8.480;2023-03-03T01:43:41;4.70;;;3.50;;
12980;SDS011;6555;50.468;8.480;2023-03-03T01:49:13;3.43;;;2.60;;
12980;SDS011;6555;50.468;8.480;2023-03-03T01:54:34;3.60;;;2.87;;
12980;SDS011;6555;50.468;8.480;2023-03-03T02:00:09;4.03;;;3.07;;
12980;SDS011;6555;50.468;8.480;2023-03-03T02:05:26;2.97;;;2.47;;
12980;SDS011;6555;50.468;8.480;2023-03-03T02:10:58;3.37;;;2.77;;
12980;SDS011;6555;50.468;8.480;2023-03-03T02:16:16;3.83;;;2.87;;
12980;SDS011;6555;50.468;8.480;2023-03-03T02:21:46;5.20;;;3.33;;
12980;SDS011;6555;50.468;8.480;2023-03-03T02:27:04;3.63;;;2.90;;
12980;SDS011;6555;50.468;8.480;2023-03-03T02:32:34;4.93;;;3.20;;
12980;SDS011;6555;50.468;8.480;2023-03-03T02:37:50;4.47;;;3.47;;
12980;SDS011;6555;50.468;8.480;2023-03-03T02:43:23;4.63;;;3.20;;
12980;SDS011;6555;50.468;8.480;2023-03-03T02:48:44;5.20;;;3.20;;
12980;SDS011;6555;50.468;8.480;2023-03-03T02:54:14;4.77;;;3.30;;
12980;SDS011;6555;50.468;8.480;2023-03-03T02:59:34;4.13;;;3.50;;
12980;SDS011;6555;50.468;8.480;2023-03-03T03:05:04;4.83;;;3.23;;
12980;SDS011;6555;50.468;8.480;2023-03-03T03:10:22;4.30;;;3.43;;
12980;SDS011;6555;50.468;8.480;2023-03-03T03:15:54;4.53;;;3.50;;
12980;SDS011;6555;50.468;8.480;2023-03-03T03:21:11;6.00;;;4.03;;
12980;SDS011;6555;50.468;8.480;2023-03-03T03:26:44;3.57;;;3.23;;
12980;SDS011;6555;50.468;8.480;2023-03-03T03:32:03;6.10;;;4.27;;
12980;SDS011;6555;50.468;8.480;2023-03-03T03:37:33;5.77;;;4.13;;
12980;SDS011;6555;50.468;8.480;2023-03-03T03:43:04;5.23;;;4.23;;
12980;SDS011;6555;50.468;8.480;2023-03-03T03:48:37;5.07;;;4.07;;
12980;SDS011;6555;50.468;8.480;2023-03-03T03:54:01;4.83;;;3.80;;
12980;SDS011;6555;50.468;8.480;2023-03-03T03:59:32;4.50;;;3.43;;
12980;SDS011;6555;50.468;8.480;2023-03-03T04:04:50;5.47;;;4.07;;
12980;SDS011;6555;50.468;8.480;2023-03-03T04:10:20;4.83;;;4.03;;
12980;SDS011;6555;50.468;8.480;2023-03-03T04:15:37;5.37;;;4.30;;
12980;SDS011;6555;50.468;8.480;2023-03-03T04:21:11;7.30;;;5.33;;
12980;SDS011;6555;50.468;8.480;2023-03-03T04:26:30;8.57;;;5.90;;
12980;SDS011;6555;50.468;8.480;2023-03-03T04:32:00;8.43;;;6.27;;
12980;SDS011;6555;50.468;8.480;2023-03-03T04:37:18;9.97;;;7.03;;
12980;SDS011;6555;50.468;8.480;2023-03-03T04:42:49;7.97;;;5.70;;
12980;SDS011;6555;50.468;8.480;2023-03-03T04:48:06;8.03;;;6.10;;
12980;SDS011;6555;50.468;8.480;2023-03-03T04:53:38;8.77;;;5.90;;
12980;SDS011;6555;50.468;8.480;2023-03-03T04:59:08;10.43;;;6.67;;
12980;SDS011;6555;50.468;8.480;2023-03-03T05:04:24;11.00;;;7.60;;
12980;SDS011;6555;50.468;8.480;2023-03-03T05:09:56;8.33;;;5.47;;
12980;SDS011;6555;50.468;8.480;2023-03-03T05:15:12;7.83;;;5.90;;
12980;SDS011;6555;50.468;8.480;2023-03-03T05:20:42;7.57;;;5.70;;
12980;SDS011;6555;50.468;8.480;2023-03-03T05:26:00;8.83;;;6.60;;
12980;SDS011;6555;50.468;8.480;2023-03-03T05:31:31;9.83;;;6.43;;
12980;SDS011;6555;50.468;8.480;2023-03-03T05:36:47;9.53;;;6.37;;
12980;SDS011;6555;50.468;8.480;2023-03-03T05:42:19;9.13;;;6.33;;
12980;SDS011;6555;50.468;8.480;2023-03-03T05:47:35;7.20;;;5.47;;
12980;SDS011;6555;50.468;8.480;2023-03-03T05:53:05;9.43;;;6.27;;
12980;SDS011;6555;50.468;8.480;2023-03-03T05:58:23;10.10;;;7.07;;
12980;SDS011;6555;50.468;8.480;2023-03-03T06:03:53;11.30;;;7.37;;
12980;SDS011;6555;50.468;8.480;2023-03-03T06:09:09;8.33;;;5.83;;
12980;SDS011;6555;50.468;8.480;2023-03-03T06:14:41;6.83;;;5.40;;
12980;SDS011;6555;50.468;8.480;2023-03-03T06:19:57;7.63;;;5.40;;
12980;SDS011;6555;50.468;8.480;2023-03-03T06:25:27;7.97;;;5.77;;
12980;SDS011;6555;50.468;8.480;2023-03-03T06:30:45;8.23;;;5.77;;
12980;SDS011;6555;50.468;8.480;2023-03-03T06:36:15;6.10;;;4.07;;
12980;SDS011;6555;50.468;8.480;2023-03-03T06:41:31;7.17;;;5.30;;
12980;SDS011;6555;50.468;8.480;2023-03-03T06:47:03;7.40;;;5.07;;
12980;SDS011;6555;50.468;8.480;2023-03-03T06:52:21;8.57;;;5.47;;
12980;SDS011;6555;50.468;8.480;2023-03-03T06:57:52;7.53;;;5.20;;
12980;SDS011;6555;50.468;8.480;2023-03-03T07:03:15;6.67;;;4.63;;
12980;SDS011;6555;50.468;8.480;2023-03-03T07:08:46;6.07;;;4.57;;
12980;SDS011;6555;50.468;8.480;2023-03-03T07:14:04;6.27;;;4.63;;
12980;SDS011;6555;50.468;8.480;2023-03-03T07:19:46;8.40;;;5.10;;
12980;SDS011;6555;50.468;8.480;2023-03-03T07:25:05;7.90;;;5.70;;
12980;SDS011;6555;50.468;8.480;2023-03-03T07:30:48;5.50;;;4.20;;
12980;SDS011;6555;50.468;8.480;2023-03-03T07:36:17;6.73;;;5.07;;
12980;SDS011;6555;50.468;8.480;2023-03-03T07:41:55;5.67;;;4.60;;
12980;SDS011;6555;50.468;8.480;2023-03-03T07:47:34;6.03;;;3.97;;
12980;SDS011;6555;50.468;8.480;2023-03-03T07:53:07;6.83;;;4.73;;
12980;SDS011;6555;50.468;8.480;2023-03-03T07:58:36;4.47;;;3.53;;
12980;SDS011;6555;50.468;8.480;2023-03-03T08:04:18;5.50;;;3.73;;
12980;SDS011;6555;50.468;8.480;2023-03-03T08:09:43;6.87;;;4.80;;
12980;SDS011;6555;50.468;8.480;2023-03-03T08:15:18;5.70;;;4.13;;
12980;SDS011;6555;50.468;8.480;2023-03-03T08:20:46;4.47;;;3.60;;
12980;SDS011;6555;50.468;8.480;2023-03-03T08:26:19;4.57;;;3.90;;
12980;SDS011;6555;50.468;8.480;2023-03-03T08:31:36;4.97;;;3.63;;
12980;SDS011;6555;50.468;8.480;2023-03-03T08:37:06;4.63;;;3.50;;
12980;SDS011;6555;50.468;8.480;2023-03-03T08:42:24;4.33;;;3.30;;
12980;SDS011;6555;50.468;8.480;2023-03-03T08:47:54;4.07;;;3.30;;
12980;SDS011;6555;50.468;8.480;2023-03-03T08:53:13;3.93;;;3.03;;
12980;SDS011;6555;50.468;8.480;2023-03-03T08:58:45;5.23;;;4.10;;
12980;SDS011;6555;50.468;8.480;2023-03-03T09:04:09;5.70;;;3.80;;
12980;SDS011;6555;50.468;8.480;2023-03-03T09:09:39;4.50;;;3.40;;
12980;SDS011;6555;50.468;8.480;2023-03-03T09:14:58;5.17;;;3.80;;
12980;SDS011;6555;50.468;8.480;2023-03-03T09:20:33;3.60;;;2.93;;
12980;SDS011;6555;50.468;8.480;2023-03-03T09:25:51;6.97;;;4.20;;
12980;SDS011;6555;50.468;8.480;2023-03-03T09:31:25;4.63;;;3.77;;
12980;SDS011;6555;50.468;8.480;2023-03-03T09:36:42;4.47;;;3.37;;
12980;SDS011;6555;50.468;8.480;2023-03-03T09:42:16;5.77;;;4.10;;
12980;SDS011;6555;50.468;8.480;2023-03-03T09:48:25;4.47;;;3.47;;
12980;SDS011;6555;50.468;8.480;2023-03-03T09:54:13;4.27;;;3.50;;
12980;SDS011;6555;50.468;8.480;2023-03-03T10:00:03;4.47;;;3.43;;
12980;SDS011;6555;50.468;8.480;2023-03-03T10:05:37;4.30;;;3.27;;
12980;SDS011;6555;50.468;8.480;2023-03-03T10:11:17;5.57;;;3.90;;
12980;SDS011;6555;50.468;8.480;2023-03-03T10:16:40;3.80;;;2.93;;
12980;SDS011;6555;50.468;8.480;2023-03-03T10:22:23;4.20;;;3.13;;
12980;SDS011;6555;50.468;8.480;2023-03-03T10:27:54;4.37;;;3.63;;
12980;SDS011;6555;50.468;8.480;2023-03-03T10:33:35;3.93;;;3.07;;
12980;SDS011;6555;50.468;8.480;2023-03-03T10:39:02;5.07;;;3.83;;
12980;SDS011;6555;50.468;8.480;2023-03-03T10:50:32;6.40;;;4.23;;
12980;SDS011;6555;50.468;8.480;2023-03-03T10:56:17;6.60;;;4.70;;
12980;SDS011;6555;50.468;8.480;2023-03-03T11:02:00;5.33;;;4.53;;
12980;SDS011;6555;50.468;8.480;2023-03-03T11:07:37;5.30;;;3.63;;
12980;SDS011;6555;50.468;8.480;2023-03-03T11:13:01;4.37;;;3.67;;
12980;SDS011;6555;50.468;8.480;2023-03-03T11:18:43;5.63;;;3.97;;
12980;SDS011;6555;50.468;8.480;2023-03-03T11:24:11;5.20;;;4.00;;
12980;SDS011;6555;50.468;8.480;2023-03-03T11:29:52;6.53;;;5.00;;
12980;SDS011;6555;50.468;8.480;2023-03-03T11:35:40;4.80;;;3.83;;
12980;SDS011;6555;50.468;8.480;2023-03-03T11:41:02;5.20;;;3.77;;
12980;SDS011;6555;50.468;8.480;2023-03-03T11:46:41;4.97;;;3.33;;
12980;SDS011;6555;50.468;8.480;2023-03-03T11:52:02;3.67;;;3.00;;
12980;SDS011;6555;50.468;8.480;2023-03-03T11:57:40;3.80;;;3.03;;
12980;SDS011;6555;50.468;8.480;2023-03-03T12:03:13;6.20;;;4.63;;
12980;SDS011;6555;50.468;8.480;2023-03-03T12:09:00;3.37;;;2.60;;
12980;SDS011;6555;50.468;8.480;2023-03-03T12:20:31;4.97;;;4.20;;
12980;SDS011;6555;50.468;8.480;2023-03-03T12:25:56;4.67;;;3.43;;
12980;SDS011;6555;50.468;8.480;2023-03-03T12:31:33;4.43;;;3.60;;
12980;SDS011;6555;50.468;8.480;2023-03-03T12:37:00;3.27;;;2.80;;
12980;SDS011;6555;50.468;8.480;2023-03-03T12:42:56;3.33;;;2.70;;
12980;SDS011;6555;50.468;8.480;2023-03-03T12:48:20;3.43;;;2.87;;
12980;SDS011;6555;50.468;8.480;2023-03-03T12:54:06;3.33;;;3.03;;
12980;SDS011;6555;50.468;8.480;2023-03-03T12:59:54;2.80;;;2.53;;
12980;SDS011;6555;50.468;8.480;2023-03-03T13:05:30;3.20;;;2.90;;
12980;SDS011;6555;50.468;8.480;2023-03-03T13:11:18;3.20;;;2.07;;
12980;SDS011;6555;50.468;8.480;2023-03-03T13:16:44;3.60;;;2.40;;
12980;SDS011;6555;50.468;8.480;2023-03-03T13:22:24;2.53;;;2.13;;
12980;SDS011;6555;50.468;8.480;2023-03-03T13:27:52;2.43;;;2.23;;
12980;SDS011;6555;50.468;8.480;2023-03-03T13:33:29;2.33;;;2.00;;
12980;SDS011;6555;50.468;8.480;2023-03-03T13:38:50;2.00;;;1.80;;
12980;SDS011;6555;50.468;8.480;2023-03-03T13:44:25;2.07;;;1.87;;
12980;SDS011;6555;50.468;8.480;2023-03-03T13:49:54;2.73;;;2.13;;
12980;SDS011;6555;50.468;8.480;2023-03-03T13:55:34;2.00;;;1.80;;
12980;SDS011;6555;50.468;8.480;2023-03-03T14:00:58;2.13;;;1.93;;
12980;SDS011;6555;50.468;8.480;2023-03-03T14:06:32;2.07;;;1.70;;
12980;SDS011;6555;50.468;8.480;2023-03-03T14:11:48;2.50;;;2.30;;
12980;SDS011;6555;50.468;8.480;2023-03-03T14:17:26;2.33;;;2.13;;
12980;SDS011;6555;50.468;8.480;2023-03-03T14:22:50;2.13;;;1.93;;
12980;SDS011;6555;50.468;8.480;2023-03-03T14:28:22;1.90;;;1.60;;
12980;SDS011;6555;50.468;8.480;2023-03-03T14:33:41;1.70;;;1.60;;
12980;SDS011;6555;50.468;8.480;2023-03-03T14:39:25;2.07;;;1.70;;
12980;SDS011;6555;50.468;8.480;2023-03-03T14:44:49;2.30;;;1.90;;
12980;SDS011;6555;50.468;8.480;2023-03-03T14:50:46;2.43;;;2.07;;
12980;SDS011;6555;50.468;8.480;2023-03-03T14:56:14;1.80;;;1.63;;
12980;SDS011;6555;50.468;8.480;2023-03-03T15:01:50;2.13;;;1.83;;
12980;SDS011;6555;50.468;8.480;2023-03-03T15:07:18;1.77;;;1.67;;
12980;SDS011;6555;50.468;8.480;2023-03-03T15:12:57;1.67;;;1.57;;
12980;SDS011;6555;50.468;8.480;2023-03-03T15:18:13;1.80;;;1.47;;
12980;SDS011;6555;50.468;8.480;2023-03-03T15:23:46;2.00;;;1.80;;
12980;SDS011;6555;50.468;8.480;2023-03-03T15:29:12;2.17;;;1.80;;
12980;SDS011;6555;50.468;8.480;2023-03-03T15:34:46;2.10;;;1.77;;
12980;SDS011;6555;50.468;8.480;2023-03-03T15:40:18;1.60;;;1.40;;
12980;SDS011;6555;50.468;8.480;2023-03-03T15:45:57;2.00;;;1.70;;
12980;SDS011;6555;50.468;8.480;2023-03-03T15:51:24;3.33;;;1.80;;
12980;SDS011;6555;50.468;8.480;2023-03-03T15:57:20;1.97;;;1.80;;
12980;SDS011;6555;50.468;8.480;2023-03-03T16:02:46;2.60;;;1.90;;
12980;SDS011;6555;50.468;8.480;2023-03-03T16:08:22;4.20;;;1.60;;
12980;SDS011;6555;50.468;8.480;2023-03-03T16:13:47;2.53;;;1.73;;
12980;SDS011;6555;50.468;8.480;2023-03-03T16:19:31;1.90;;;1.67;;
12980;SDS011;6555;50.468;8.480;2023-03-03T16:24:58;1.73;;;1.63;;
12980;SDS011;6555;50.468;8.480;2023-03-03T16:30:41;1.60;;;1.50;;
12980;SDS011;6555;50.468;8.480;2023-03-03T16:36:05;2.13;;;1.70;;
12980;SDS011;6555;50.468;8.480;2023-03-03T16:41:43;2.13;;;1.80;;
12980;SDS011;6555;50.468;8.480;2023-03-03T16:47:18;1.70;;;1.60;;
12980;SDS011;6555;50.468;8.480;2023-03-03T16:53:04;1.87;;;1.63;;
12980;SDS011;6555;50.468;8.480;2023-03-03T16:58:30;2.67;;;1.80;;
12980;SDS011;6555;50.468;8.480;2023-03-03T17:04:09;2.50;;;1.47;;
12980;SDS011;6555;50.468;8.480;2023-03-03T17:09:38;1.90;;;1.60;;
12980;SDS011;6555;50.468;8.480;2023-03-03T17:15:21;2.13;;;1.73;;
12980;SDS011;6555;50.468;8.480;2023-03-03T17:20:58;2.33;;;1.80;;
12980;SDS011;6555;50.468;8.480;2023-03-03T17:26:32;2.60;;;2.00;;
12980;SDS011;6555;50.468;8.480;2023-03-03T17:32:04;2.03;;;1.50;;
12980;SDS011;6555;50.468;8.480;2023-03-03T17:37:46;3.00;;;1.60;;
12980;SDS011;6555;50.468;8.480;2023-03-03T17:43:10;3.40;;;1.87;;
12980;SDS011;6555;50.468;8.480;2023-03-03T17:55:02;2.97;;;1.80;;
12980;SDS011;6555;50.468;8.480;2023-03-03T18:00:52;2.37;;;2.07;;
12980;SDS011;6555;50.468;8.480;2023-03-03T18:06:30;2.80;;;1.90;;
12980;SDS011;6555;50.468;8.480;2023-03-03T18:12:16;2.03;;;1.83;;
12980;SDS011;6555;50.468;8.480;2023-03-03T18:17:49;2.40;;;1.77;;
12980;SDS011;6555;50.468;8.480;2023-03-03T18:23:32;1.80;;;1.50;;
12980;SDS011;6555;50.468;8.480;2023-03-03T18:29:05;1.93;;;1.73;;
12980;SDS011;6555;50.468;8.480;2023-03-03T18:40:47;3.87;;;2.07;;
12980;SDS011;6555;50.468;8.480;2023-03-03T18:52:13;2.20;;;1.67;;
12980;SDS011;6555;50.468;8.480;2023-03-03T18:57:59;2.17;;;1.60;;
12980;SDS011;6555;50.468;8.480;2023-03-03T19:09:49;2.27;;;1.60;;
12980;SDS011;6555;50.468;8.480;2023-03-03T19:21:20;2.60;;;2.13;;
12980;SDS011;6555;50.468;8.480;2023-03-03T19:38:56;2.97;;;2.10;;
12980;SDS011;6555;50.468;8.480;2023-03-03T19:51:12;5.27;;;3.83;;
12980;SDS011;6555;50.468;8.480;2023-03-03T19:56:55;3.27;;;2.57;;
12980;SDS011;6555;50.468;8.480;2023-03-03T20:02:25;2.80;;;2.13;;
12980;SDS011;6555;50.468;8.480;2023-03-03T20:08:03;3.20;;;2.37;;
12980;SDS011;6555;50.468;8.480;2023-03-03T20:13:31;2.30;;;2.10;;
12980;SDS011;6555;50.468;8.480;2023-03-03T20:19:16;2.27;;;1.77;;
12980;SDS011;6555;50.468;8.480;2023-03-03T20:24:56;2.50;;;1.97;;
12980;SDS011;6555;50.468;8.480;2023-03-03T20:30:51;2.53;;;1.97;;
12980;SDS011;6555;50.468;8.480;2023-03-03T20:36:19;2.63;;;1.97;;
12980;SDS011;6555;50.468;8.480;2023-03-03T20:41:59;2.20;;;2.00;;
12980;SDS011;6555;50.468;8.480;2023-03-03T20:47:28;2.10;;;1.73;;
12980;SDS011;6555;50.468;8.480;2023-03-03T20:53:17;2.53;;;2.20;;
12980;SDS011;6555;50.468;8.480;2023-03-03T20:58:51;2.70;;;1.90;;
12980;SDS011;6555;50.468;8.480;2023-03-03T21:05:14;2.70;;;1.87;;
12980;SDS011;6555;50.468;8.480;2023-03-03T21:10:37;2.40;;;2.00;;
12980;SDS011;6555;50.468;8.480;2023-03-03T21:16:51;2.23;;;1.87;;
12980;SDS011;6555;50.468;8.480;2023-03-03T21:22:24;1.90;;;1.70;;
12980;SDS011;6555;50.468;8.480;2023-03-03T21:28:18;2.20;;;1.90;;
12980;SDS011;6555;50.468;8.480;2023-03-03T21:33:47;2.40;;;1.87;;
12980;SDS011;6555;50.468;8.480;2023-03-03T21:39:35;3.10;;;2.63;;
12980;SDS011;6555;50.468;8.480;2023-03-03T21:45:07;5.10;;;3.10;;
12980;SDS011;6555;50.468;8.480;2023-03-03T21:50:24;5.60;;;3.97;;
12980;SDS011;6555;50.468;8.480;2023-03-03T21:55:57;4.17;;;3.17;;
12980;SDS011;6555;50.468;8.480;2023-03-03T22:01:30;5.23;;;3.57;;
12980;SDS011;6555;50.468;8.480;2023-03-03T22:06:47;3.70;;;2.60;;
12980;SDS011;6555;50.468;8.480;2023-03-03T22:12:18;2.73;;;2.23;;
12980;SDS011;6555;50.468;8.480;2023-03-03T22:17:35;2.50;;;2.20;;
12980;SDS011;6555;50.468;8.480;2023-03-03T22:23:06;3.50;;;2.43;;
12980;SDS011;6555;50.468;8.480;2023-03-03T22:28:23;3.67;;;3.10;;
12980;SDS011;6555;50.468;8.480;2023-03-03T22:33:56;2.70;;;2.27;;
12980;SDS011;6555;50.468;8.480;2023-03-03T22:39:12;3.97;;;2.40;;
12980;SDS011;6555;50.468;8.480;2023-03-03T22:44:43;3.00;;;2.30;;
12980;SDS011;6555;50.468;8.480;2023-03-03T22:50:00;2.87;;;2.10;;
12980;SDS011;6555;50.468;8.480;2023-03-03T22:55:30;2.50;;;2.30;;
12980;SDS011;6555;50.468;8.480;2023-03-03T23:01:01;3.03;;;2.30;;
12980;SDS011;6555;50.468;8.480;2023-03-03T23:06:18;3.13;;;2.00;;
12980;SDS011;6555;50.468;8.480;2023-03-03T23:11:48;2.80;;;2.07;;
12980;SDS011;6555;50.468;8.480;2023-03-03T23:17:05;2.70;;;2.07;;
12980;SDS011;6555;50.468;8.480;2023-03-03T23:22:36;2.80;;;2.00;;
12980;SDS011;6555;50.468;8.480;2023-03-03T23:27:52;2.60;;;1.90;;
12980;SDS011;6555;50.468;8.480;2023-03-03T23:33:24;2.67;;;2.00;;
12980;SDS011;6555;50.468;8.480;2023-03-03T23:38:41;3.37;;;2.20;;
12980;SDS011;6555;50.468;8.480;2023-03-03T23:44:11;3.60;;;2.40;;
12980;SDS011;6555;50.468;8.480;2023-03-03T23:49:29;1.93;;;1.73;;
12980;SDS011;6555;50.468;8.480;2023-03-03T23:55:00;2.60;;;2.10;;
